sensor_id;sensor_type;location;lat;lon;timestamp;P1;durP1;ratioP1;P2;durP2;ratioP2
76850;SDS011;65824;43.726;20.692;2023-08-31T00:02:13;5.82;;;1.73;;
76850;SDS011;65824;43.726;20.692;2023-08-31T00:04:39;5.03;;;1.88;;
76850;SDS011;65824;43.726;20.692;2023-08-31T00:07:04;4.30;;;1.50;;
76850;SDS011;65824;43.726;20.692;2023-08-31T00:09:30;3.67;;;1.55;;
76850;SDS011;65824;43.726;20.692;2023-08-31T00:11:56;4.97;;;1.83;;
76850;SDS011;65824;43.726;20.692;2023-08-31T00:14:25;4.55;;;1.63;;
76850;SDS011;65824;43.726;20.692;2023-08-31T00:16:52;3.78;;;1.77;;
76850;SDS011;65824;43.726;20.692;2023-08-31T00:19:17;5.43;;;2.40;;
76850;SDS011;65824;43.726;20.692;2023-08-31T00:21:43;4.50;;;1.70;;
76850;SDS011;65824;43.726;20.692;2023-08-31T00:24:08;6.53;;;2.03;;
76850;SDS011;65824;43.726;20.692;2023-08-31T00:26:35;5.20;;;2.35;;
76850;SDS011;65824;43.726;20.692;2023-08-31T00:29:05;6.20;;;2.03;;
76850;SDS011;65824;43.726;20.692;2023-08-31T00:31:31;7.25;;;2.25;;
76850;SDS011;65824;43.726;20.692;2023-08-31T00:33:57;4.57;;;2.00;;
76850;SDS011;65824;43.726;20.692;2023-08-31T00:36:22;5.18;;;2.40;;
76850;SDS011;65824;43.726;20.692;2023-08-31T00:38:49;8.48;;;2.88;;
76850;SDS011;65824;43.726;20.692;2023-08-31T00:41:15;7.45;;;2.08;;
76850;SDS011;65824;43.726;20.692;2023-08-31T00:43:41;5.07;;;2.30;;
76850;SDS011;65824;43.726;20.692;2023-08-31T00:46:07;5.55;;;2.20;;
76850;SDS011;65824;43.726;20.692;2023-08-31T00:48:32;11.38;;;3.15;;
76850;SDS011;65824;43.726;20.692;2023-08-31T00:50:58;5.32;;;2.78;;
76850;SDS011;65824;43.726;20.692;2023-08-31T00:53:26;5.95;;;3.05;;
76850;SDS011;65824;43.726;20.692;2023-08-31T00:55:51;6.05;;;2.70;;
76850;SDS011;65824;43.726;20.692;2023-08-31T00:58:17;6.07;;;2.30;;
76850;SDS011;65824;43.726;20.692;2023-08-31T01:03:53;5.82;;;2.08;;
76850;SDS011;65824;43.726;20.692;2023-08-31T01:09:43;6.55;;;1.92;;
76850;SDS011;65824;43.726;20.692;2023-08-31T01:12:21;5.05;;;1.92;;
76850;SDS011;65824;43.726;20.692;2023-08-31T01:15:04;4.10;;;1.60;;
76850;SDS011;65824;43.726;20.692;2023-08-31T01:17:38;5.38;;;1.70;;
76850;SDS011;65824;43.726;20.692;2023-08-31T01:20:08;5.35;;;1.60;;
76850;SDS011;65824;43.726;20.692;2023-08-31T01:22:38;3.35;;;1.45;;
76850;SDS011;65824;43.726;20.692;2023-08-31T01:25:05;5.10;;;1.63;;
76850;SDS011;65824;43.726;20.692;2023-08-31T01:27:34;5.28;;;1.70;;
76850;SDS011;65824;43.726;20.692;2023-08-31T01:30:01;4.43;;;1.75;;
76850;SDS011;65824;43.726;20.692;2023-08-31T01:32:27;3.70;;;1.63;;
76850;SDS011;65824;43.726;20.692;2023-08-31T01:34:54;4.38;;;1.65;;
76850;SDS011;65824;43.726;20.692;2023-08-31T01:37:22;4.68;;;2.00;;
76850;SDS011;65824;43.726;20.692;2023-08-31T01:40:02;6.03;;;1.60;;
76850;SDS011;65824;43.726;20.692;2023-08-31T01:42:35;5.78;;;2.10;;
76850;SDS011;65824;43.726;20.692;2023-08-31T01:45:02;7.22;;;3.25;;
76850;SDS011;65824;43.726;20.692;2023-08-31T01:47:29;12.73;;;7.10;;
76850;SDS011;65824;43.726;20.692;2023-08-31T01:49:54;15.18;;;6.32;;
76850;SDS011;65824;43.726;20.692;2023-08-31T01:52:21;10.45;;;6.10;;
76850;SDS011;65824;43.726;20.692;2023-08-31T01:54:46;11.18;;;6.97;;
76850;SDS011;65824;43.726;20.692;2023-08-31T01:57:11;15.88;;;11.52;;
76850;SDS011;65824;43.726;20.692;2023-08-31T01:59:38;14.63;;;6.72;;
76850;SDS011;65824;43.726;20.692;2023-08-31T02:02:03;8.35;;;3.30;;
76850;SDS011;65824;43.726;20.692;2023-08-31T02:04:29;5.78;;;2.90;;
76850;SDS011;65824;43.726;20.692;2023-08-31T02:06:55;5.78;;;3.00;;
76850;SDS011;65824;43.726;20.692;2023-08-31T02:09:21;6.65;;;3.55;;
76850;SDS011;65824;43.726;20.692;2023-08-31T02:11:46;6.43;;;3.60;;
76850;SDS011;65824;43.726;20.692;2023-08-31T02:14:12;8.48;;;4.30;;
76850;SDS011;65824;43.726;20.692;2023-08-31T02:16:38;9.35;;;4.90;;
76850;SDS011;65824;43.726;20.692;2023-08-31T02:19:04;7.75;;;4.78;;
76850;SDS011;65824;43.726;20.692;2023-08-31T02:21:29;8.48;;;4.30;;
76850;SDS011;65824;43.726;20.692;2023-08-31T02:23:55;8.63;;;4.10;;
76850;SDS011;65824;43.726;20.692;2023-08-31T02:26:21;7.32;;;3.78;;
76850;SDS011;65824;43.726;20.692;2023-08-31T02:28:47;7.10;;;3.83;;
76850;SDS011;65824;43.726;20.692;2023-08-31T02:31:14;5.55;;;2.60;;
76850;SDS011;65824;43.726;20.692;2023-08-31T02:33:41;6.03;;;2.60;;
76850;SDS011;65824;43.726;20.692;2023-08-31T02:36:08;3.80;;;2.00;;
76850;SDS011;65824;43.726;20.692;2023-08-31T02:38:33;5.82;;;2.30;;
76850;SDS011;65824;43.726;20.692;2023-08-31T02:40:59;4.82;;;2.30;;
76850;SDS011;65824;43.726;20.692;2023-08-31T02:43:24;4.35;;;1.70;;
76850;SDS011;65824;43.726;20.692;2023-08-31T02:45:58;5.82;;;2.28;;
76850;SDS011;65824;43.726;20.692;2023-08-31T02:48:24;4.75;;;1.88;;
76850;SDS011;65824;43.726;20.692;2023-08-31T02:50:50;5.97;;;2.58;;
76850;SDS011;65824;43.726;20.692;2023-08-31T02:53:16;5.97;;;2.20;;
76850;SDS011;65824;43.726;20.692;2023-08-31T02:55:45;5.22;;;1.90;;
76850;SDS011;65824;43.726;20.692;2023-08-31T02:58:10;4.88;;;1.90;;
76850;SDS011;65824;43.726;20.692;2023-08-31T03:00:36;4.90;;;1.67;;
76850;SDS011;65824;43.726;20.692;2023-08-31T03:03:07;4.15;;;1.80;;
76850;SDS011;65824;43.726;20.692;2023-08-31T03:05:34;5.72;;;1.63;;
76850;SDS011;65824;43.726;20.692;2023-08-31T03:07:59;8.70;;;1.85;;
76850;SDS011;65824;43.726;20.692;2023-08-31T03:10:25;4.72;;;1.70;;
76850;SDS011;65824;43.726;20.692;2023-08-31T03:12:50;4.07;;;1.60;;
76850;SDS011;65824;43.726;20.692;2023-08-31T03:15:17;5.28;;;1.83;;
76850;SDS011;65824;43.726;20.692;2023-08-31T03:17:43;4.75;;;1.70;;
76850;SDS011;65824;43.726;20.692;2023-08-31T03:20:08;4.75;;;1.73;;
76850;SDS011;65824;43.726;20.692;2023-08-31T03:22:35;6.10;;;1.80;;
76850;SDS011;65824;43.726;20.692;2023-08-31T03:25:00;4.10;;;1.80;;
76850;SDS011;65824;43.726;20.692;2023-08-31T03:27:26;5.20;;;2.05;;
76850;SDS011;65824;43.726;20.692;2023-08-31T03:29:51;6.90;;;2.30;;
76850;SDS011;65824;43.726;20.692;2023-08-31T03:32:18;3.40;;;1.60;;
76850;SDS011;65824;43.726;20.692;2023-08-31T03:34:44;4.20;;;1.60;;
76850;SDS011;65824;43.726;20.692;2023-08-31T03:37:11;5.60;;;1.75;;
76850;SDS011;65824;43.726;20.692;2023-08-31T03:39:36;4.95;;;2.05;;
76850;SDS011;65824;43.726;20.692;2023-08-31T03:42:02;5.72;;;1.77;;
76850;SDS011;65824;43.726;20.692;2023-08-31T03:44:29;5.22;;;1.75;;
76850;SDS011;65824;43.726;20.692;2023-08-31T03:46:54;9.07;;;2.42;;
76850;SDS011;65824;43.726;20.692;2023-08-31T03:49:20;5.00;;;1.92;;
76850;SDS011;65824;43.726;20.692;2023-08-31T03:51:45;5.47;;;1.70;;
76850;SDS011;65824;43.726;20.692;2023-08-31T03:54:10;6.07;;;1.80;;
76850;SDS011;65824;43.726;20.692;2023-08-31T03:56:38;5.47;;;2.00;;
76850;SDS011;65824;43.726;20.692;2023-08-31T03:59:04;5.20;;;2.00;;
76850;SDS011;65824;43.726;20.692;2023-08-31T04:01:31;7.60;;;2.00;;
76850;SDS011;65824;43.726;20.692;2023-08-31T04:03:56;7.07;;;2.10;;
76850;SDS011;65824;43.726;20.692;2023-08-31T04:06:22;5.63;;;1.88;;
76850;SDS011;65824;43.726;20.692;2023-08-31T04:08:48;7.72;;;1.88;;
76850;SDS011;65824;43.726;20.692;2023-08-31T04:11:13;6.10;;;1.95;;
76850;SDS011;65824;43.726;20.692;2023-08-31T04:13:40;5.63;;;2.00;;
76850;SDS011;65824;43.726;20.692;2023-08-31T04:16:05;4.30;;;1.77;;
76850;SDS011;65824;43.726;20.692;2023-08-31T04:18:34;5.55;;;1.98;;
76850;SDS011;65824;43.726;20.692;2023-08-31T04:21:00;5.43;;;1.90;;
76850;SDS011;65824;43.726;20.692;2023-08-31T04:23:28;8.35;;;2.05;;
76850;SDS011;65824;43.726;20.692;2023-08-31T04:25:54;9.32;;;2.22;;
76850;SDS011;65824;43.726;20.692;2023-08-31T04:28:22;6.88;;;2.10;;
76850;SDS011;65824;43.726;20.692;2023-08-31T04:30:51;6.78;;;2.10;;
76850;SDS011;65824;43.726;20.692;2023-08-31T04:33:17;4.00;;;1.88;;
76850;SDS011;65824;43.726;20.692;2023-08-31T04:35:43;7.25;;;2.25;;
76850;SDS011;65824;43.726;20.692;2023-08-31T04:38:09;4.50;;;2.00;;
76850;SDS011;65824;43.726;20.692;2023-08-31T04:40:35;5.40;;;2.10;;
76850;SDS011;65824;43.726;20.692;2023-08-31T04:43:01;7.53;;;2.38;;
76850;SDS011;65824;43.726;20.692;2023-08-31T04:45:28;5.60;;;2.20;;
76850;SDS011;65824;43.726;20.692;2023-08-31T04:47:53;6.55;;;2.50;;
76850;SDS011;65824;43.726;20.692;2023-08-31T04:50:22;7.80;;;2.60;;
76850;SDS011;65824;43.726;20.692;2023-08-31T04:52:47;7.07;;;2.50;;
76850;SDS011;65824;43.726;20.692;2023-08-31T04:55:13;6.60;;;2.28;;
76850;SDS011;65824;43.726;20.692;2023-08-31T04:57:40;6.88;;;2.00;;
76850;SDS011;65824;43.726;20.692;2023-08-31T05:00:06;6.00;;;2.45;;
76850;SDS011;65824;43.726;20.692;2023-08-31T05:02:34;6.80;;;1.90;;
76850;SDS011;65824;43.726;20.692;2023-08-31T05:05:00;6.35;;;1.90;;
76850;SDS011;65824;43.726;20.692;2023-08-31T05:07:26;8.70;;;2.30;;
76850;SDS011;65824;43.726;20.692;2023-08-31T05:09:53;8.27;;;2.10;;
76850;SDS011;65824;43.726;20.692;2023-08-31T05:12:18;4.50;;;2.00;;
76850;SDS011;65824;43.726;20.692;2023-08-31T05:14:44;7.45;;;1.85;;
76850;SDS011;65824;43.726;20.692;2023-08-31T05:17:10;6.63;;;2.00;;
76850;SDS011;65824;43.726;20.692;2023-08-31T05:19:36;6.22;;;2.75;;
76850;SDS011;65824;43.726;20.692;2023-08-31T05:22:01;4.45;;;2.03;;
76850;SDS011;65824;43.726;20.692;2023-08-31T05:24:27;5.70;;;2.40;;
76850;SDS011;65824;43.726;20.692;2023-08-31T05:26:53;6.47;;;2.20;;
76850;SDS011;65824;43.726;20.692;2023-08-31T05:29:19;5.38;;;2.03;;
76850;SDS011;65824;43.726;20.692;2023-08-31T05:31:47;5.95;;;2.47;;
76850;SDS011;65824;43.726;20.692;2023-08-31T05:34:15;7.90;;;2.47;;
76850;SDS011;65824;43.726;20.692;2023-08-31T05:36:42;6.25;;;2.45;;
76850;SDS011;65824;43.726;20.692;2023-08-31T05:39:08;5.30;;;2.17;;
76850;SDS011;65824;43.726;20.692;2023-08-31T05:41:34;7.40;;;3.22;;
76850;SDS011;65824;43.726;20.692;2023-08-31T05:44:01;8.80;;;3.65;;
76850;SDS011;65824;43.726;20.692;2023-08-31T05:46:28;10.20;;;3.97;;
76850;SDS011;65824;43.726;20.692;2023-08-31T05:48:53;8.95;;;3.50;;
76850;SDS011;65824;43.726;20.692;2023-08-31T05:51:19;10.30;;;3.85;;
76850;SDS011;65824;43.726;20.692;2023-08-31T05:53:44;9.07;;;3.88;;
76850;SDS011;65824;43.726;20.692;2023-08-31T05:56:10;10.18;;;3.78;;
76850;SDS011;65824;43.726;20.692;2023-08-31T05:58:36;8.90;;;3.90;;
76850;SDS011;65824;43.726;20.692;2023-08-31T06:01:03;8.75;;;3.60;;
76850;SDS011;65824;43.726;20.692;2023-08-31T06:03:29;7.78;;;3.20;;
76850;SDS011;65824;43.726;20.692;2023-08-31T06:05:56;8.07;;;3.22;;
76850;SDS011;65824;43.726;20.692;2023-08-31T06:08:22;8.18;;;3.30;;
76850;SDS011;65824;43.726;20.692;2023-08-31T06:10:49;6.50;;;2.80;;
76850;SDS011;65824;43.726;20.692;2023-08-31T06:13:16;11.98;;;5.28;;
76850;SDS011;65824;43.726;20.692;2023-08-31T06:15:41;9.30;;;3.38;;
76850;SDS011;65824;43.726;20.692;2023-08-31T06:18:09;8.43;;;3.20;;
76850;SDS011;65824;43.726;20.692;2023-08-31T06:20:35;6.43;;;2.83;;
76850;SDS011;65824;43.726;20.692;2023-08-31T06:23:01;5.63;;;2.50;;
76850;SDS011;65824;43.726;20.692;2023-08-31T06:25:27;6.25;;;2.70;;
76850;SDS011;65824;43.726;20.692;2023-08-31T06:27:53;7.40;;;2.70;;
76850;SDS011;65824;43.726;20.692;2023-08-31T06:30:19;5.70;;;2.75;;
76850;SDS011;65824;43.726;20.692;2023-08-31T06:32:45;7.68;;;2.45;;
76850;SDS011;65824;43.726;20.692;2023-08-31T06:35:13;9.73;;;2.90;;
76850;SDS011;65824;43.726;20.692;2023-08-31T06:37:39;7.30;;;2.63;;
76850;SDS011;65824;43.726;20.692;2023-08-31T06:40:08;7.63;;;2.53;;
76850;SDS011;65824;43.726;20.692;2023-08-31T06:42:35;9.02;;;2.67;;
76850;SDS011;65824;43.726;20.692;2023-08-31T06:45:02;8.88;;;2.80;;
76850;SDS011;65824;43.726;20.692;2023-08-31T06:47:34;6.50;;;2.65;;
76850;SDS011;65824;43.726;20.692;2023-08-31T06:49:59;6.82;;;2.58;;
76850;SDS011;65824;43.726;20.692;2023-08-31T06:52:26;7.28;;;3.70;;
76850;SDS011;65824;43.726;20.692;2023-08-31T06:54:52;7.38;;;3.53;;
76850;SDS011;65824;43.726;20.692;2023-08-31T06:57:23;9.55;;;3.10;;
76850;SDS011;65824;43.726;20.692;2023-08-31T06:59:49;7.53;;;2.78;;
76850;SDS011;65824;43.726;20.692;2023-08-31T07:02:14;8.20;;;3.00;;
76850;SDS011;65824;43.726;20.692;2023-08-31T07:04:40;7.38;;;3.50;;
76850;SDS011;65824;43.726;20.692;2023-08-31T07:07:05;7.03;;;2.92;;
76850;SDS011;65824;43.726;20.692;2023-08-31T07:09:32;8.10;;;3.55;;
76850;SDS011;65824;43.726;20.692;2023-08-31T07:11:57;6.43;;;2.65;;
76850;SDS011;65824;43.726;20.692;2023-08-31T07:14:23;6.13;;;2.97;;
76850;SDS011;65824;43.726;20.692;2023-08-31T07:16:49;8.10;;;2.50;;
76850;SDS011;65824;43.726;20.692;2023-08-31T07:19:15;10.82;;;2.67;;
76850;SDS011;65824;43.726;20.692;2023-08-31T07:21:40;9.32;;;2.60;;
76850;SDS011;65824;43.726;20.692;2023-08-31T07:24:06;7.28;;;2.75;;
76850;SDS011;65824;43.726;20.692;2023-08-31T07:26:32;6.82;;;3.30;;
76850;SDS011;65824;43.726;20.692;2023-08-31T07:29:00;8.63;;;3.20;;
76850;SDS011;65824;43.726;20.692;2023-08-31T07:31:26;11.60;;;5.97;;
76850;SDS011;65824;43.726;20.692;2023-08-31T07:33:52;8.93;;;4.07;;
76850;SDS011;65824;43.726;20.692;2023-08-31T07:36:19;8.45;;;3.42;;
76850;SDS011;65824;43.726;20.692;2023-08-31T07:38:44;7.55;;;3.25;;
76850;SDS011;65824;43.726;20.692;2023-08-31T07:41:10;11.05;;;4.15;;
76850;SDS011;65824;43.726;20.692;2023-08-31T07:43:36;15.80;;;7.55;;
76850;SDS011;65824;43.726;20.692;2023-08-31T07:46:01;7.57;;;3.10;;
76850;SDS011;65824;43.726;20.692;2023-08-31T07:48:27;8.05;;;3.28;;
76850;SDS011;65824;43.726;20.692;2023-08-31T07:50:55;6.22;;;3.00;;
76850;SDS011;65824;43.726;20.692;2023-08-31T07:53:21;7.15;;;3.17;;
76850;SDS011;65824;43.726;20.692;2023-08-31T07:55:51;7.57;;;3.25;;
76850;SDS011;65824;43.726;20.692;2023-08-31T07:58:20;9.85;;;3.63;;
76850;SDS011;65824;43.726;20.692;2023-08-31T08:00:46;8.15;;;3.20;;
76850;SDS011;65824;43.726;20.692;2023-08-31T08:03:13;8.63;;;3.30;;
76850;SDS011;65824;43.726;20.692;2023-08-31T08:05:39;5.65;;;3.17;;
76850;SDS011;65824;43.726;20.692;2023-08-31T08:08:04;9.65;;;3.03;;
76850;SDS011;65824;43.726;20.692;2023-08-31T08:10:30;5.82;;;3.03;;
76850;SDS011;65824;43.726;20.692;2023-08-31T08:12:55;5.60;;;3.05;;
76850;SDS011;65824;43.726;20.692;2023-08-31T08:15:21;9.30;;;3.40;;
76850;SDS011;65824;43.726;20.692;2023-08-31T08:17:46;7.55;;;2.80;;
76850;SDS011;65824;43.726;20.692;2023-08-31T08:20:13;10.57;;;3.38;;
76850;SDS011;65824;43.726;20.692;2023-08-31T08:22:39;7.43;;;3.42;;
76850;SDS011;65824;43.726;20.692;2023-08-31T08:25:05;6.45;;;3.08;;
76850;SDS011;65824;43.726;20.692;2023-08-31T08:27:31;7.90;;;3.20;;
76850;SDS011;65824;43.726;20.692;2023-08-31T08:29:58;7.95;;;3.03;;
76850;SDS011;65824;43.726;20.692;2023-08-31T08:32:24;9.15;;;3.63;;
76850;SDS011;65824;43.726;20.692;2023-08-31T08:34:50;7.20;;;2.80;;
76850;SDS011;65824;43.726;20.692;2023-08-31T08:37:16;13.30;;;5.47;;
76850;SDS011;65824;43.726;20.692;2023-08-31T08:39:42;7.13;;;3.53;;
76850;SDS011;65824;43.726;20.692;2023-08-31T08:42:09;7.22;;;3.17;;
76850;SDS011;65824;43.726;20.692;2023-08-31T08:44:35;6.95;;;2.80;;
76850;SDS011;65824;43.726;20.692;2023-08-31T08:47:02;7.45;;;3.42;;
76850;SDS011;65824;43.726;20.692;2023-08-31T08:49:29;4.63;;;2.65;;
76850;SDS011;65824;43.726;20.692;2023-08-31T08:51:57;8.02;;;2.80;;
76850;SDS011;65824;43.726;20.692;2023-08-31T08:54:23;8.95;;;3.42;;
76850;SDS011;65824;43.726;20.692;2023-08-31T08:56:50;7.18;;;3.30;;
76850;SDS011;65824;43.726;20.692;2023-08-31T08:59:16;9.43;;;3.55;;
76850;SDS011;65824;43.726;20.692;2023-08-31T09:01:41;9.27;;;4.35;;
76850;SDS011;65824;43.726;20.692;2023-08-31T09:04:08;10.05;;;4.40;;
76850;SDS011;65824;43.726;20.692;2023-08-31T09:06:34;7.63;;;3.20;;
76850;SDS011;65824;43.726;20.692;2023-08-31T09:09:00;9.27;;;4.57;;
76850;SDS011;65824;43.726;20.692;2023-08-31T09:11:26;10.20;;;3.75;;
76850;SDS011;65824;43.726;20.692;2023-08-31T09:13:53;7.72;;;4.20;;
76850;SDS011;65824;43.726;20.692;2023-08-31T09:16:29;8.27;;;3.20;;
76850;SDS011;65824;43.726;20.692;2023-08-31T09:18:58;6.88;;;2.83;;
76850;SDS011;65824;43.726;20.692;2023-08-31T09:21:39;5.00;;;2.72;;
76850;SDS011;65824;43.726;20.692;2023-08-31T09:24:06;9.80;;;2.72;;
76850;SDS011;65824;43.726;20.692;2023-08-31T09:26:38;6.47;;;2.72;;
76850;SDS011;65824;43.726;20.692;2023-08-31T09:29:07;8.50;;;2.78;;
76850;SDS011;65824;43.726;20.692;2023-08-31T09:31:33;8.68;;;2.55;;
76850;SDS011;65824;43.726;20.692;2023-08-31T09:33:59;7.13;;;2.75;;
76850;SDS011;65824;43.726;20.692;2023-08-31T09:36:24;6.30;;;2.72;;
76850;SDS011;65824;43.726;20.692;2023-08-31T09:38:49;4.60;;;2.22;;
76850;SDS011;65824;43.726;20.692;2023-08-31T09:41:15;5.38;;;2.17;;
76850;SDS011;65824;43.726;20.692;2023-08-31T09:43:41;6.28;;;2.70;;
76850;SDS011;65824;43.726;20.692;2023-08-31T09:46:07;5.97;;;2.10;;
76850;SDS011;65824;43.726;20.692;2023-08-31T09:48:34;6.22;;;2.42;;
76850;SDS011;65824;43.726;20.692;2023-08-31T09:51:05;7.72;;;2.30;;
76850;SDS011;65824;43.726;20.692;2023-08-31T09:53:31;7.40;;;2.38;;
76850;SDS011;65824;43.726;20.692;2023-08-31T09:55:59;5.70;;;2.15;;
76850;SDS011;65824;43.726;20.692;2023-08-31T09:58:25;5.78;;;2.40;;
76850;SDS011;65824;43.726;20.692;2023-08-31T10:00:52;5.60;;;2.17;;
76850;SDS011;65824;43.726;20.692;2023-08-31T10:03:17;6.32;;;2.28;;
76850;SDS011;65824;43.726;20.692;2023-08-31T10:05:43;6.38;;;2.45;;
76850;SDS011;65824;43.726;20.692;2023-08-31T10:08:13;11.10;;;2.42;;
76850;SDS011;65824;43.726;20.692;2023-08-31T10:10:40;9.15;;;3.03;;
76850;SDS011;65824;43.726;20.692;2023-08-31T10:13:06;7.25;;;2.67;;
76850;SDS011;65824;43.726;20.692;2023-08-31T10:15:35;8.95;;;3.42;;
76850;SDS011;65824;43.726;20.692;2023-08-31T10:18:01;8.13;;;3.08;;
76850;SDS011;65824;43.726;20.692;2023-08-31T10:20:28;6.75;;;3.50;;
76850;SDS011;65824;43.726;20.692;2023-08-31T10:22:56;6.40;;;2.83;;
76850;SDS011;65824;43.726;20.692;2023-08-31T10:28:18;6.70;;;2.72;;
76850;SDS011;65824;43.726;20.692;2023-08-31T10:31:00;5.07;;;2.53;;
76850;SDS011;65824;43.726;20.692;2023-08-31T10:34:14;6.25;;;2.72;;
76850;SDS011;65824;43.726;20.692;2023-08-31T10:36:22;6.13;;;2.63;;
76850;SDS011;65824;43.726;20.692;2023-08-31T10:39:10;6.45;;;2.55;;
76850;SDS011;65824;43.726;20.692;2023-08-31T10:41:37;5.72;;;1.90;;
76850;SDS011;65824;43.726;20.692;2023-08-31T10:44:20;7.97;;;2.70;;
76850;SDS011;65824;43.726;20.692;2023-08-31T10:46:50;5.70;;;2.90;;
76850;SDS011;65824;43.726;20.692;2023-08-31T10:49:17;5.72;;;2.65;;
76850;SDS011;65824;43.726;20.692;2023-08-31T10:54:12;6.63;;;2.72;;
76850;SDS011;65824;43.726;20.692;2023-08-31T10:56:54;8.75;;;2.90;;
76850;SDS011;65824;43.726;20.692;2023-08-31T10:59:24;7.43;;;3.38;;
76850;SDS011;65824;43.726;20.692;2023-08-31T11:04:22;6.15;;;2.97;;
76850;SDS011;65824;43.726;20.692;2023-08-31T11:06:48;7.07;;;2.72;;
76850;SDS011;65824;43.726;20.692;2023-08-31T11:09:21;6.68;;;2.90;;
76850;SDS011;65824;43.726;20.692;2023-08-31T11:11:47;5.82;;;2.13;;
76850;SDS011;65824;43.726;20.692;2023-08-31T11:14:14;7.55;;;3.03;;
76850;SDS011;65824;43.726;20.692;2023-08-31T11:16:41;6.05;;;2.85;;
76850;SDS011;65824;43.726;20.692;2023-08-31T11:19:06;7.97;;;3.15;;
76850;SDS011;65824;43.726;20.692;2023-08-31T11:21:36;8.90;;;2.90;;
76850;SDS011;65824;43.726;20.692;2023-08-31T11:24:02;7.00;;;2.95;;
76850;SDS011;65824;43.726;20.692;2023-08-31T11:26:29;5.30;;;2.47;;
76850;SDS011;65824;43.726;20.692;2023-08-31T11:28:56;5.25;;;2.60;;
76850;SDS011;65824;43.726;20.692;2023-08-31T11:31:25;6.40;;;2.83;;
76850;SDS011;65824;43.726;20.692;2023-08-31T11:33:51;6.05;;;2.50;;
76850;SDS011;65824;43.726;20.692;2023-08-31T11:36:17;5.13;;;2.65;;
76850;SDS011;65824;43.726;20.692;2023-08-31T11:38:47;5.97;;;2.67;;
76850;SDS011;65824;43.726;20.692;2023-08-31T11:41:15;5.57;;;2.80;;
76850;SDS011;65824;43.726;20.692;2023-08-31T11:43:40;5.00;;;2.33;;
76850;SDS011;65824;43.726;20.692;2023-08-31T11:46:06;5.97;;;2.50;;
76850;SDS011;65824;43.726;20.692;2023-08-31T11:48:32;6.53;;;2.72;;
76850;SDS011;65824;43.726;20.692;2023-08-31T11:51:01;6.32;;;2.50;;
76850;SDS011;65824;43.726;20.692;2023-08-31T11:53:27;5.65;;;2.40;;
76850;SDS011;65824;43.726;20.692;2023-08-31T11:55:54;4.82;;;2.35;;
76850;SDS011;65824;43.726;20.692;2023-08-31T11:58:20;5.55;;;2.45;;
76850;SDS011;65824;43.726;20.692;2023-08-31T12:00:54;8.45;;;2.80;;
76850;SDS011;65824;43.726;20.692;2023-08-31T12:03:20;5.32;;;2.55;;
76850;SDS011;65824;43.726;20.692;2023-08-31T12:05:47;5.63;;;2.45;;
76850;SDS011;65824;43.726;20.692;2023-08-31T12:08:23;8.98;;;2.60;;
76850;SDS011;65824;43.726;20.692;2023-08-31T12:10:50;6.13;;;2.20;;
76850;SDS011;65824;43.726;20.692;2023-08-31T12:13:16;5.60;;;2.50;;
76850;SDS011;65824;43.726;20.692;2023-08-31T12:15:41;8.18;;;2.78;;
76850;SDS011;65824;43.726;20.692;2023-08-31T12:18:07;6.55;;;3.45;;
76850;SDS011;65824;43.726;20.692;2023-08-31T12:20:52;6.25;;;2.80;;
76850;SDS011;65824;43.726;20.692;2023-08-31T12:23:20;5.95;;;2.50;;
76850;SDS011;65824;43.726;20.692;2023-08-31T12:25:50;7.57;;;2.80;;
76850;SDS011;65824;43.726;20.692;2023-08-31T12:28:19;7.07;;;2.42;;
76850;SDS011;65824;43.726;20.692;2023-08-31T12:30:49;5.97;;;2.63;;
76850;SDS011;65824;43.726;20.692;2023-08-31T12:33:16;5.63;;;2.15;;
76850;SDS011;65824;43.726;20.692;2023-08-31T12:38:13;6.15;;;2.70;;
76850;SDS011;65824;43.726;20.692;2023-08-31T12:40:42;6.30;;;2.60;;
76850;SDS011;65824;43.726;20.692;2023-08-31T12:43:10;6.22;;;2.40;;
76850;SDS011;65824;43.726;20.692;2023-08-31T12:45:37;5.63;;;2.67;;
76850;SDS011;65824;43.726;20.692;2023-08-31T12:48:02;8.20;;;2.75;;
76850;SDS011;65824;43.726;20.692;2023-08-31T12:50:30;4.80;;;2.30;;
76850;SDS011;65824;43.726;20.692;2023-08-31T12:52:56;6.47;;;2.47;;
76850;SDS011;65824;43.726;20.692;2023-08-31T12:55:22;5.97;;;2.53;;
76850;SDS011;65824;43.726;20.692;2023-08-31T12:57:48;8.48;;;2.72;;
76850;SDS011;65824;43.726;20.692;2023-08-31T13:00:14;9.10;;;2.60;;
76850;SDS011;65824;43.726;20.692;2023-08-31T13:02:40;5.95;;;2.55;;
76850;SDS011;65824;43.726;20.692;2023-08-31T13:05:09;6.22;;;2.63;;
76850;SDS011;65824;43.726;20.692;2023-08-31T13:07:36;7.88;;;2.80;;
76850;SDS011;65824;43.726;20.692;2023-08-31T13:10:02;5.47;;;2.65;;
76850;SDS011;65824;43.726;20.692;2023-08-31T13:12:29;6.35;;;2.28;;
76850;SDS011;65824;43.726;20.692;2023-08-31T13:14:56;8.18;;;2.60;;
76850;SDS011;65824;43.726;20.692;2023-08-31T13:17:22;6.85;;;3.00;;
76850;SDS011;65824;43.726;20.692;2023-08-31T13:19:51;7.28;;;2.53;;
76850;SDS011;65824;43.726;20.692;2023-08-31T13:22:18;6.32;;;2.60;;
76850;SDS011;65824;43.726;20.692;2023-08-31T13:24:45;6.50;;;2.42;;
76850;SDS011;65824;43.726;20.692;2023-08-31T13:27:11;6.50;;;2.47;;
76850;SDS011;65824;43.726;20.692;2023-08-31T13:29:39;5.88;;;2.10;;
76850;SDS011;65824;43.726;20.692;2023-08-31T13:32:05;5.22;;;2.50;;
76850;SDS011;65824;43.726;20.692;2023-08-31T13:34:31;6.45;;;2.70;;
76850;SDS011;65824;43.726;20.692;2023-08-31T13:36:56;5.60;;;2.92;;
76850;SDS011;65824;43.726;20.692;2023-08-31T13:39:27;7.50;;;2.70;;
76850;SDS011;65824;43.726;20.692;2023-08-31T13:41:53;6.78;;;2.85;;
76850;SDS011;65824;43.726;20.692;2023-08-31T13:44:19;9.32;;;4.10;;
76850;SDS011;65824;43.726;20.692;2023-08-31T13:46:48;6.63;;;2.63;;
76850;SDS011;65824;43.726;20.692;2023-08-31T13:49:14;8.45;;;3.40;;
76850;SDS011;65824;43.726;20.692;2023-08-31T13:51:41;7.57;;;3.33;;
76850;SDS011;65824;43.726;20.692;2023-08-31T13:54:07;7.55;;;4.07;;
76850;SDS011;65824;43.726;20.692;2023-08-31T13:56:33;5.95;;;2.40;;
76850;SDS011;65824;43.726;20.692;2023-08-31T13:58:59;6.10;;;3.13;;
76850;SDS011;65824;43.726;20.692;2023-08-31T14:01:25;7.40;;;2.63;;
76850;SDS011;65824;43.726;20.692;2023-08-31T14:03:50;5.03;;;2.10;;
76850;SDS011;65824;43.726;20.692;2023-08-31T14:06:16;4.10;;;2.15;;
76850;SDS011;65824;43.726;20.692;2023-08-31T14:08:41;7.05;;;3.08;;
76850;SDS011;65824;43.726;20.692;2023-08-31T14:11:07;8.70;;;2.30;;
76850;SDS011;65824;43.726;20.692;2023-08-31T14:13:33;8.00;;;2.85;;
76850;SDS011;65824;43.726;20.692;2023-08-31T14:15:59;8.77;;;4.50;;
76850;SDS011;65824;43.726;20.692;2023-08-31T14:18:26;6.80;;;3.33;;
76850;SDS011;65824;43.726;20.692;2023-08-31T14:20:53;7.05;;;2.80;;
76850;SDS011;65824;43.726;20.692;2023-08-31T14:23:20;5.00;;;2.35;;
76850;SDS011;65824;43.726;20.692;2023-08-31T14:25:45;7.20;;;2.30;;
76850;SDS011;65824;43.726;20.692;2023-08-31T14:28:10;4.55;;;2.20;;
76850;SDS011;65824;43.726;20.692;2023-08-31T14:30:36;5.72;;;2.22;;
76850;SDS011;65824;43.726;20.692;2023-08-31T14:33:03;5.15;;;2.55;;
76850;SDS011;65824;43.726;20.692;2023-08-31T14:35:29;7.75;;;3.33;;
76850;SDS011;65824;43.726;20.692;2023-08-31T14:37:55;8.50;;;3.60;;
76850;SDS011;65824;43.726;20.692;2023-08-31T14:40:21;7.65;;;4.22;;
76850;SDS011;65824;43.726;20.692;2023-08-31T14:42:46;10.73;;;4.35;;
76850;SDS011;65824;43.726;20.692;2023-08-31T14:45:12;9.30;;;3.97;;
76850;SDS011;65824;43.726;20.692;2023-08-31T14:47:37;8.13;;;3.53;;
76850;SDS011;65824;43.726;20.692;2023-08-31T14:50:03;8.13;;;3.83;;